Time;durP1;ratioP1;P1;durP2;ratioP2;P2;SDS_P1;SDS_P2;PMS_P1;PMS_P2;Temp;Humidity;BMP_temperature;BMP_pressure;BME280_temperature;BME280_humidity;BME280_pressure;Samples;Min_cycle;Max_cycle;Signal;HPM_P1;HPM_P2
2022/11/11 00:01:27;;;;;;;12.02;3.72;;;12.90;99.90;;;;;;5068054;28;20559;-80
2022/11/11 00:04:12;;;;;;;11.15;4.07;;;12.90;99.90;;;;;;5061297;28;20107;-81
2022/11/11 00:06:59;;;;;;;13.07;3.58;;;13.00;99.90;;;;;;5052025;28;20052;-81
2022/11/11 00:09:45;;;;;;;12.25;4.55;;;12.90;99.90;;;;;;5061530;28;21776;-81
2022/11/11 00:12:30;;;;;;;9.93;4.32;;;12.90;99.90;;;;;;5063001;28;20060;-81
2022/11/11 00:15:16;;;;;;;10.02;4.35;;;12.80;99.90;;;;;;5061590;28;20047;-81
2022/11/11 00:27:24;;;;;;;15.93;4.93;;;12.80;99.90;;;;;;5067869;28;20101;-81
2022/11/11 00:30:10;;;;;;;9.27;4.88;;;12.80;99.90;;;;;;5061878;28;20056;-81
2022/11/11 00:32:56;;;;;;;8.05;4.57;;;12.80;99.90;;;;;;5059196;28;20054;-81
2022/11/11 00:35:53;;;;;;;10.50;4.63;;;12.70;99.90;;;;;;5062474;28;20059;-81
2022/11/11 00:38:46;;;;;;;11.55;4.63;;;12.80;99.90;;;;;;5058546;28;20121;-81
2022/11/11 00:41:34;;;;;;;12.07;4.93;;;12.80;99.90;;;;;;5061102;28;20491;-81
2022/11/11 00:44:19;;;;;;;12.90;5.00;;;12.80;99.90;;;;;;5067432;28;20051;-80
2022/11/11 00:53:16;;;;;;;13.20;4.85;;;12.70;99.90;;;;;;5050850;28;20170;-81
2022/11/11 00:56:02;;;;;;;11.15;4.70;;;12.70;99.90;;;;;;5050103;28;20102;-81
2022/11/11 00:58:49;;;;;;;15.02;4.70;;;12.70;99.90;;;;;;5056924;28;20064;-80
2022/11/11 01:01:36;;;;;;;12.25;4.10;;;12.70;99.90;;;;;;5063736;28;20101;-81
2022/11/11 01:04:22;;;;;;;10.95;4.55;;;12.70;99.90;;;;;;5060015;28;20144;-81
2022/11/11 01:07:07;;;;;;;12.27;5.00;;;12.70;99.90;;;;;;5070967;28;20523;-80
2022/11/11 01:09:53;;;;;;;10.20;4.57;;;12.70;99.90;;;;;;5062542;28;20067;-81
2022/11/11 01:12:39;;;;;;;9.02;4.20;;;12.70;99.90;;;;;;5069470;28;20133;-81
2022/11/11 01:15:26;;;;;;;11.20;4.78;;;12.70;99.90;;;;;;5053072;28;20055;-81
2022/11/11 01:18:12;;;;;;;9.40;4.38;;;12.70;99.90;;;;;;5064125;28;20123;-81
2022/11/11 01:21:02;;;;;;;15.88;5.25;;;12.70;99.90;;;;;;5065768;28;20056;-81
2022/11/11 01:23:53;;;;;;;10.75;4.00;;;12.70;99.90;;;;;;5052953;28;20259;-81
2022/11/11 01:26:39;;;;;;;10.35;4.18;;;12.70;99.90;;;;;;5065242;28;20109;-81
2022/11/11 01:29:25;;;;;;;9.13;4.07;;;12.70;99.90;;;;;;5064941;28;20429;-80
2022/11/11 01:32:12;;;;;;;12.13;4.20;;;12.70;99.90;;;;;;5057955;28;20063;-80
2022/11/11 01:34:57;;;;;;;9.07;3.78;;;12.70;99.90;;;;;;5057713;28;20512;-80
2022/11/11 01:37:42;;;;;;;9.50;4.03;;;12.70;99.90;;;;;;5055307;28;20474;-80
2022/11/11 01:40:28;;;;;;;9.65;3.85;;;12.70;99.90;;;;;;5062079;28;20094;-80
2022/11/11 01:43:24;;;;;;;9.35;3.97;;;12.70;99.90;;;;;;5069449;28;20059;-80
2022/11/11 01:46:17;;;;;;;9.45;4.00;;;12.70;99.90;;;;;;5062528;28;20048;-80
2022/11/11 01:49:22;;;;;;;9.68;4.07;;;12.70;99.90;;;;;;5062064;28;20059;-80
2022/11/11 01:52:09;;;;;;;11.02;4.43;;;12.70;99.90;;;;;;5057728;28;20047;-80
2022/11/11 01:55:00;;;;;;;9.57;3.78;;;12.60;99.90;;;;;;5057065;28;20052;-80
2022/11/11 01:57:48;;;;;;;7.97;3.78;;;12.60;99.90;;;;;;5054949;28;20063;-80
2022/11/11 02:00:34;;;;;;;8.27;3.60;;;12.70;99.90;;;;;;5062120;28;20059;-80
2022/11/11 02:03:21;;;;;;;8.35;3.78;;;12.70;99.90;;;;;;5069867;28;20141;-80
2022/11/11 02:06:10;;;;;;;7.95;3.53;;;12.70;99.90;;;;;;5055811;28;20074;-80
2022/11/11 02:08:56;;;;;;;11.20;4.13;;;12.70;99.90;;;;;;5067054;28;20063;-80
2022/11/11 02:14:52;;;;;;;8.63;3.58;;;12.70;99.90;;;;;;5066726;28;20094;-80
2022/11/11 02:17:38;;;;;;;10.77;4.15;;;12.70;99.90;;;;;;5063364;28;20059;-80
2022/11/11 02:20:25;;;;;;;8.40;4.10;;;12.70;99.90;;;;;;5061233;28;20047;-80
2022/11/11 02:23:15;;;;;;;11.48;3.95;;;12.70;99.90;;;;;;5066365;28;20063;-80
2022/11/11 02:26:03;;;;;;;8.73;4.10;;;12.60;99.90;;;;;;5057958;28;20128;-80
2022/11/11 02:28:49;;;;;;;10.35;3.75;;;12.70;99.90;;;;;;5060037;28;20060;-80
2022/11/11 02:31:35;;;;;;;11.90;3.90;;;12.70;99.90;;;;;;5062419;28;20047;-80
2022/11/11 02:34:21;;;;;;;9.38;4.45;;;12.70;99.90;;;;;;5060566;28;20050;-80
2022/11/11 02:37:08;;;;;;;10.70;4.28;;;12.60;99.90;;;;;;5058472;28;20060;-80
2022/11/11 02:39:58;;;;;;;11.20;4.55;;;12.60;99.90;;;;;;5065302;28;20658;-80
2022/11/11 02:42:45;;;;;;;9.48;4.35;;;12.60;99.90;;;;;;5060784;28;20429;-80
2022/11/11 02:45:31;;;;;;;11.82;4.38;;;12.60;99.90;;;;;;5063323;28;20422;-80
2022/11/11 02:48:16;;;;;;;8.70;4.25;;;12.60;99.90;;;;;;5058670;28;20051;-80
2022/11/11 02:51:01;;;;;;;11.07;4.20;;;12.60;99.90;;;;;;5060034;28;20532;-80
2022/11/11 02:53:47;;;;;;;11.82;3.90;;;12.60;99.90;;;;;;5065087;28;20052;-80
2022/11/11 02:59:39;;;;;;;9.82;4.10;;;12.60;99.90;;;;;;5060233;28;20050;-80
2022/11/11 03:02:26;;;;;;;8.80;4.10;;;12.60;99.90;;;;;;5054263;28;20079;-80
2022/11/11 03:05:11;;;;;;;10.65;4.53;;;12.60;99.90;;;;;;5058093;28;20135;-80
2022/11/11 03:07:57;;;;;;;9.50;4.15;;;12.60;99.90;;;;;;5066995;28;20043;-80
2022/11/11 03:10:42;;;;;;;8.85;3.70;;;12.50;99.90;;;;;;5057243;28;20052;-80
2022/11/11 03:13:28;;;;;;;8.70;4.80;;;12.50;99.90;;;;;;5056875;28;20059;-80
2022/11/11 03:17:38;;;;;;;8.52;4.15;;;12.50;99.90;;;;;;5070158;28;20186;-80
2022/11/11 03:19:31;;;;;;;9.55;4.25;;;12.50;99.90;;;;;;5056635;28;20056;-80
2022/11/11 03:22:16;;;;;;;10.43;4.15;;;12.50;99.90;;;;;;5070398;28;20040;-80
2022/11/11 03:28:04;;;;;;;8.00;4.05;;;12.50;99.90;;;;;;5088274;28;20066;-80
2022/11/11 03:30:52;;;;;;;10.80;4.50;;;12.50;99.90;;;;;;5081781;28;20106;-80
2022/11/11 03:33:39;;;;;;;8.65;3.83;;;12.40;99.90;;;;;;5075086;28;20039;-80
2022/11/11 03:38:14;;;;;;;11.90;4.40;;;12.40;99.90;;;;;;5055833;28;20063;-80
2022/11/11 03:39:29;;;;;;;10.45;4.72;;;12.40;99.90;;;;;;5073345;28;20063;-80
2022/11/11 03:42:15;;;;;;;14.02;4.47;;;12.40;99.90;;;;;;5071766;28;20083;-80
2022/11/11 03:45:00;;;;;;;8.60;4.15;;;12.40;99.90;;;;;;5060709;28;20067;-80
2022/11/11 03:47:46;;;;;;;8.88;4.40;;;12.40;99.90;;;;;;5060602;28;20404;-80
2022/11/11 03:50:33;;;;;;;11.57;4.20;;;12.30;99.90;;;;;;5065887;28;20063;-80
2022/11/11 03:53:19;;;;;;;12.80;4.25;;;12.30;99.90;;;;;;5065584;28;20057;-80
2022/11/11 03:56:05;;;;;;;9.35;4.18;;;12.30;99.90;;;;;;5071343;28;20059;-80
2022/11/11 03:58:51;;;;;;;9.75;4.15;;;12.30;99.90;;;;;;5061476;28;20064;-80
2022/11/11 04:10:49;;;;;;;8.95;3.92;;;12.20;99.90;;;;;;5046100;28;20095;-78
2022/11/11 04:16:38;;;;;;;7.70;4.05;;;12.20;99.90;;;;;;5057465;28;20703;-79
2022/11/11 04:22:27;;;;;;;8.40;3.85;;;12.20;99.90;;;;;;5049339;28;20122;-79
2022/11/11 04:31:20;;;;;;;12.55;4.22;;;12.20;99.90;;;;;;5042653;28;20047;-79
2022/11/11 04:34:05;;;;;;;13.40;5.00;;;12.10;99.90;;;;;;5052034;28;20054;-79
2022/11/11 04:36:51;;;;;;;8.07;3.90;;;12.10;99.90;;;;;;5060690;28;20056;-79
2022/11/11 04:42:41;;;;;;;11.23;4.05;;;12.10;99.90;;;;;;5050863;28;20060;-79
2022/11/11 04:45:30;;;;;;;10.02;4.47;;;12.10;99.90;;;;;;5049840;28;20107;-79
2022/11/11 04:48:17;;;;;;;8.25;4.07;;;12.10;99.90;;;;;;5050080;28;20056;-79
2022/11/11 04:51:02;;;;;;;8.65;4.07;;;12.10;99.90;;;;;;5048501;28;20064;-79
2022/11/11 04:53:47;;;;;;;9.65;4.25;;;12.10;99.90;;;;;;5065128;28;20058;-79
2022/11/11 04:56:48;;;;;;;11.32;4.65;;;12.10;99.90;;;;;;5049657;28;20094;-79
2022/11/11 04:59:35;;;;;;;10.32;4.60;;;12.10;99.90;;;;;;5043631;28;20464;-79
2022/11/11 05:05:25;;;;;;;12.73;4.70;;;12.00;99.90;;;;;;5049299;28;20090;-78
2022/11/11 05:11:13;;;;;;;10.23;4.00;;;12.00;99.90;;;;;;5057318;28;20136;-79
2022/11/11 05:23:13;;;;;;;9.23;3.55;;;12.00;99.90;;;;;;5049785;28;20056;-83
2022/11/11 05:25:57;;;;;;;10.48;4.05;;;12.00;99.90;;;;;;5033065;28;20056;-82
2022/11/11 05:28:43;;;;;;;12.00;4.32;;;12.00;99.90;;;;;;5056580;28;20052;-83
2022/11/11 05:31:29;;;;;;;8.85;4.10;;;11.90;99.90;;;;;;5049758;28;20060;-86
2022/11/11 05:34:15;;;;;;;8.00;3.78;;;12.00;99.90;;;;;;5049976;28;20517;-86
2022/11/11 05:37:01;;;;;;;10.73;4.13;;;11.90;99.90;;;;;;5048151;28;20068;-85
2022/11/11 05:39:46;;;;;;;9.38;3.97;;;12.00;99.90;;;;;;5044028;28;20064;-86
2022/11/11 05:42:32;;;;;;;7.70;4.13;;;11.90;99.90;;;;;;5054710;28;20093;-83
2022/11/11 05:45:17;;;;;;;7.40;3.65;;;12.00;99.90;;;;;;5055435;28;20052;-82
2022/11/11 05:48:03;;;;;;;9.68;4.10;;;11.90;99.90;;;;;;5045752;28;20074;-85
2022/11/11 05:50:50;;;;;;;8.25;3.78;;;11.90;99.90;;;;;;5044935;28;20064;-84
2022/11/11 05:53:36;;;;;;;9.55;3.88;;;11.90;99.90;;;;;;5045434;28;20059;-83
2022/11/11 05:56:21;;;;;;;9.48;3.90;;;11.90;99.90;;;;;;5050051;28;20167;-83
2022/11/11 05:59:08;;;;;;;8.65;4.30;;;11.90;99.90;;;;;;5046436;28;20064;-83
2022/11/11 06:01:53;;;;;;;12.60;4.15;;;12.00;99.90;;;;;;5049177;28;20806;-81
2022/11/11 06:04:38;;;;;;;8.27;3.80;;;11.80;99.90;;;;;;5040466;28;20056;-81
2022/11/11 06:07:25;;;;;;;8.00;4.00;;;11.80;99.90;;;;;;5048017;28;20529;-85
2022/11/11 06:13:14;;;;;;;12.90;4.43;;;11.80;99.90;;;;;;5050487;28;20523;-82
2022/11/11 06:16:00;;;;;;;9.23;3.55;;;11.80;99.90;;;;;;5052166;28;20048;-83
2022/11/11 06:18:45;;;;;;;8.95;4.65;;;11.80;99.90;;;;;;5048682;28;20064;-84
2022/11/11 06:21:31;;;;;;;8.57;3.85;;;11.70;99.90;;;;;;5044575;28;20059;-83
2022/11/11 06:24:18;;;;;;;11.75;4.18;;;11.80;99.90;;;;;;5044134;28;20735;-83
2022/11/11 06:27:03;;;;;;;9.07;3.42;;;11.70;99.90;;;;;;5042139;28;20078;-83
2022/11/11 06:29:48;;;;;;;9.65;3.65;;;11.70;99.90;;;;;;5042096;28;20068;-83
2022/11/11 06:32:34;;;;;;;9.02;3.88;;;11.70;99.90;;;;;;5042456;28;20076;-82
2022/11/11 06:35:19;;;;;;;9.80;3.72;;;11.70;99.90;;;;;;5046681;28;20421;-82
2022/11/11 06:38:06;;;;;;;7.88;3.15;;;11.70;99.90;;;;;;5045398;28;20059;-80
2022/11/11 06:40:53;;;;;;;10.18;3.85;;;11.70;99.90;;;;;;5045442;28;20805;-81
2022/11/11 06:43:38;;;;;;;10.85;4.15;;;11.60;99.90;;;;;;5047686;28;20060;-80
2022/11/11 06:46:25;;;;;;;8.73;4.05;;;11.70;99.90;;;;;;5041172;28;20267;-81
2022/11/11 06:49:10;;;;;;;12.60;4.43;;;11.70;99.90;;;;;;5047457;28;20524;-80
2022/11/11 06:51:56;;;;;;;10.57;3.97;;;11.70;99.90;;;;;;5048700;28;20064;-80
2022/11/11 06:54:41;;;;;;;10.70;4.68;;;11.60;99.90;;;;;;5046325;28;20528;-81
2022/11/11 06:57:28;;;;;;;17.55;5.25;;;11.70;99.90;;;;;;5045320;28;20063;-81
2022/11/11 07:00:14;;;;;;;15.15;6.35;;;11.70;99.90;;;;;;5047329;28;20175;-82
2022/11/11 07:03:00;;;;;;;17.35;7.47;;;11.70;99.90;;;;;;5047561;28;20055;-81
2022/11/11 07:05:46;;;;;;;13.60;6.28;;;11.80;99.90;;;;;;5043028;28;20075;-82
2022/11/11 07:08:32;;;;;;;11.98;5.55;;;11.80;99.90;;;;;;5045995;28;20052;-83
2022/11/11 07:11:17;;;;;;;13.15;5.00;;;11.80;99.90;;;;;;5048757;28;20056;-83
2022/11/11 07:14:04;;;;;;;8.23;4.60;;;11.80;99.90;;;;;;5046249;28;20055;-83
2022/11/11 07:16:49;;;;;;;8.18;4.55;;;11.80;99.90;;;;;;5046627;28;20138;-82
2022/11/11 07:19:35;;;;;;;7.53;4.15;;;11.80;99.90;;;;;;5041614;28;20421;-81
2022/11/11 07:22:21;;;;;;;9.68;4.47;;;11.80;99.90;;;;;;5047181;28;20060;-81
2022/11/11 07:25:07;;;;;;;10.25;4.53;;;11.80;99.90;;;;;;5050495;28;20060;-83
2022/11/11 07:27:52;;;;;;;11.00;4.55;;;11.80;99.90;;;;;;5048666;28;20072;-84
2022/11/11 07:30:40;;;;;;;11.88;4.40;;;11.80;99.90;;;;;;5051557;28;20130;-85
2022/11/11 07:33:28;;;;;;;9.07;4.00;;;11.90;99.90;;;;;;5050580;28;20068;-84
2022/11/11 07:36:13;;;;;;;8.60;4.68;;;11.90;99.90;;;;;;5048079;28;20048;-84
2022/11/11 07:38:59;;;;;;;10.88;4.80;;;11.90;99.90;;;;;;5050193;28;20133;-85
2022/11/11 07:41:44;;;;;;;11.40;5.13;;;11.90;99.90;;;;;;5049546;28;20118;-84
2022/11/11 07:44:30;;;;;;;8.23;3.67;;;12.00;99.90;;;;;;5049178;28;20068;-84
2022/11/11 07:47:17;;;;;;;6.72;3.80;;;12.00;99.90;;;;;;5050126;28;20060;-85
2022/11/11 07:50:04;;;;;;;10.18;4.35;;;12.00;99.90;;;;;;5047910;28;20118;-84
2022/11/11 07:52:50;;;;;;;7.78;4.00;;;12.00;99.90;;;;;;5049128;28;20079;-84
2022/11/11 07:55:35;;;;;;;9.65;4.38;;;12.10;99.90;;;;;;5049617;28;20203;-84
2022/11/11 07:58:22;;;;;;;9.07;4.05;;;12.10;99.90;;;;;;5049009;28;20051;-84
2022/11/11 08:01:07;;;;;;;12.07;3.88;;;12.10;99.90;;;;;;5050023;28;20102;-84
2022/11/11 08:03:54;;;;;;;8.43;3.70;;;12.20;99.90;;;;;;5045981;28;20060;-84
2022/11/11 08:06:39;;;;;;;7.13;3.40;;;12.20;99.90;;;;;;5049433;28;20130;-84
2022/11/11 08:09:25;;;;;;;9.88;3.85;;;12.20;99.90;;;;;;5044483;28;20060;-85
2022/11/11 08:15:15;;;;;;;5.97;3.00;;;12.20;99.90;;;;;;5047512;28;20190;-84
2022/11/11 08:18:00;;;;;;;10.45;3.30;;;12.30;99.90;;;;;;5047399;28;20063;-84
2022/11/11 08:20:47;;;;;;;5.47;2.92;;;12.30;99.90;;;;;;5050419;28;20433;-84
2022/11/11 08:23:33;;;;;;;7.60;3.20;;;12.40;99.90;;;;;;5047727;28;20056;-84
2022/11/11 08:26:18;;;;;;;7.30;3.40;;;12.40;99.90;;;;;;5047253;28;20060;-84
2022/11/11 08:29:08;;;;;;;7.15;2.85;;;12.40;99.90;;;;;;5047936;28;20068;-84
2022/11/11 08:31:54;;;;;;;9.27;3.17;;;12.50;99.90;;;;;;5045785;28;20187;-84
2022/11/11 08:34:39;;;;;;;7.68;3.28;;;12.50;99.90;;;;;;5047021;28;20059;-83
2022/11/11 08:37:26;;;;;;;6.97;2.95;;;12.60;99.90;;;;;;5047050;28;20079;-84
2022/11/11 08:40:11;;;;;;;12.25;3.40;;;12.60;99.90;;;;;;5049834;28;20047;-85
2022/11/11 08:42:58;;;;;;;6.18;3.00;;;12.60;99.90;;;;;;5048039;28;20756;-84
2022/11/11 08:45:46;;;;;;;8.85;3.15;;;12.70;99.90;;;;;;5045681;28;20055;-84
2022/11/11 08:48:32;;;;;;;6.40;2.78;;;12.70;99.90;;;;;;5046578;28;20060;-84
2022/11/11 08:51:17;;;;;;;7.10;2.70;;;12.90;99.90;;;;;;5049791;28;20079;-84
2022/11/11 08:54:04;;;;;;;7.13;2.80;;;12.70;99.90;;;;;;5048230;28;20047;-84
2022/11/11 08:56:50;;;;;;;5.82;2.78;;;12.70;99.90;;;;;;5047661;28;20066;-84
2022/11/11 08:59:35;;;;;;;5.15;2.70;;;12.70;99.90;;;;;;5045709;28;20048;-84
2022/11/11 09:02:21;;;;;;;8.23;3.00;;;12.80;99.90;;;;;;5050250;28;20051;-84
2022/11/11 09:05:07;;;;;;;7.15;3.42;;;12.80;99.90;;;;;;5052968;28;20489;-84
2022/11/11 09:07:52;;;;;;;6.60;2.70;;;12.90;99.90;;;;;;5046778;28;20060;-84
2022/11/11 09:10:40;;;;;;;7.63;2.80;;;12.90;99.90;;;;;;5042241;28;20111;-84
2022/11/11 09:13:25;;;;;;;5.90;2.63;;;12.90;99.90;;;;;;5042389;28;20610;-84
2022/11/11 09:16:11;;;;;;;6.43;2.50;;;12.90;99.90;;;;;;5048170;28;20051;-84
2022/11/11 09:18:57;;;;;;;5.35;2.40;;;12.90;99.90;;;;;;5044953;28;20434;-84
2022/11/11 09:21:42;;;;;;;6.22;2.40;;;13.00;99.90;;;;;;5051749;28;20178;-84
2022/11/11 09:24:28;;;;;;;6.60;2.55;;;13.00;99.90;;;;;;5047658;28;20063;-84
2022/11/11 09:27:15;;;;;;;11.23;3.10;;;13.00;99.90;;;;;;5049010;28;20464;-84
2022/11/11 09:30:00;;;;;;;5.30;2.20;;;13.00;99.90;;;;;;5048478;28;20424;-84
2022/11/11 09:32:46;;;;;;;5.25;2.67;;;13.10;99.90;;;;;;5048538;28;20110;-87
2022/11/11 09:35:32;;;;;;;6.63;2.53;;;13.10;99.90;;;;;;5047009;28;20436;-85
2022/11/11 09:38:17;;;;;;;6.85;3.33;;;13.20;99.90;;;;;;5050157;28;20198;-87
2022/11/11 09:41:13;;;;;;;6.70;2.40;;;13.20;99.90;;;;;;5049066;28;20060;-89
2022/11/11 09:44:02;;;;;;;7.05;2.78;;;13.20;99.90;;;;;;5048948;28;20178;-90
2022/11/11 09:46:54;;;;;;;10.80;3.03;;;13.20;99.90;;;;;;5046714;28;20043;-90
2022/11/11 09:49:50;;;;;;;5.70;2.35;;;13.20;99.90;;;;;;5047073;28;20520;-92
2022/11/11 09:52:40;;;;;;;4.47;2.20;;;13.30;99.90;;;;;;5043214;28;20056;-91
2022/11/11 09:55:28;;;;;;;7.55;2.60;;;13.30;99.90;;;;;;5041097;28;20088;-90
2022/11/11 09:58:16;;;;;;;11.38;2.80;;;13.30;99.90;;;;;;5047923;28;20059;-88
2022/11/11 10:01:08;;;;;;;6.10;2.33;;;13.40;99.90;;;;;;5049064;28;20060;-90
2022/11/11 10:04:00;;;;;;;6.97;2.42;;;13.40;99.90;;;;;;5061267;22;20084;-81
2022/11/11 10:06:47;;;;;;;7.45;3.17;;;13.40;99.90;;;;;;5057713;28;20048;-81
2022/11/11 10:09:40;;;;;;;8.32;3.00;;;13.50;99.90;;;;;;5061232;28;20064;-81
2022/11/11 10:12:27;;;;;;;8.23;2.72;;;13.40;99.90;;;;;;5054900;28;20187;-82
2022/11/11 10:15:15;;;;;;;6.68;2.75;;;13.50;99.90;;;;;;5057125;28;20059;-82
2022/11/11 10:18:27;;;;;;;6.80;2.58;;;13.50;99.90;;;;;;5057968;28;20175;-82
2022/11/11 10:21:13;;;;;;;;;;;13.50;99.90;;;;;;5060636;28;20063;-82
2022/11/11 10:24:02;;;;;;;6.70;2.70;;;13.60;99.90;;;;;;5068525;28;19932;-82
2022/11/11 10:26:47;;;;;;;9.02;3.03;;;13.60;99.90;;;;;;5067422;28;20220;-82
2022/11/11 10:29:43;;;;;;;6.10;2.67;;;13.60;99.90;;;;;;5062240;28;20062;-82
2022/11/11 10:32:32;;;;;;;5.45;2.45;;;13.60;99.90;;;;;;5057086;28;20125;-81
2022/11/11 10:35:22;;;;;;;6.72;2.35;;;13.60;99.90;;;;;;5067629;28;20535;-82
2022/11/11 10:38:21;;;;;;;8.00;2.78;;;13.60;99.90;;;;;;5058353;28;20744;-83
2022/11/11 10:41:16;;;;;;;5.82;2.35;;;13.70;99.90;;;;;;5060316;28;20150;-82
2022/11/11 10:44:01;;;;;;;7.68;2.30;;;13.70;99.90;;;;;;5064421;28;20145;-82
2022/11/11 10:46:56;;;;;;;5.78;2.60;;;13.70;99.90;;;;;;5062887;28;20133;-82
2022/11/11 10:49:46;;;;;;;6.93;2.90;;;13.70;99.90;;;;;;5063751;28;20064;-82
2022/11/11 10:52:36;;;;;;;5.32;2.25;;;13.70;99.90;;;;;;5060137;28;20059;-82
2022/11/11 10:55:25;;;;;;;5.00;2.40;;;13.80;99.90;;;;;;5056353;28;20052;-82
2022/11/11 10:58:15;;;;;;;14.23;2.60;;;13.80;99.90;;;;;;5060475;28;20067;-82
2022/11/11 11:01:01;;;;;;;6.07;2.40;;;13.80;99.90;;;;;;5056313;28;20052;-83
2022/11/11 11:03:52;;;;;;;5.05;2.20;;;13.80;99.90;;;;;;5073672;28;20059;-82
2022/11/11 11:06:40;;;;;;;6.47;2.20;;;13.80;99.90;;;;;;5064908;28;20056;-82
2022/11/11 11:09:32;;;;;;;7.00;2.45;;;13.90;99.90;;;;;;5064486;28;20071;-82
2022/11/11 11:12:22;;;;;;;5.63;2.60;;;13.90;99.90;;;;;;5065091;28;20078;-82
2022/11/11 11:15:11;;;;;;;7.38;2.42;;;13.90;99.90;;;;;;5066782;28;20742;-81
2022/11/11 11:18:00;;;;;;;5.95;2.38;;;13.90;99.90;;;;;;5066778;28;20113;-81
2022/11/11 11:20:56;;;;;;;6.03;3.15;;;14.00;99.90;;;;;;5065248;28;20064;-80
2022/11/11 11:23:43;;;;;;;10.35;3.53;;;14.00;99.90;;;;;;5060659;28;20064;-81
2022/11/11 11:26:43;;;;;;;5.32;2.35;;;14.00;99.90;;;;;;5057873;28;21103;-80
2022/11/11 11:29:31;;;;;;;8.00;2.00;;;14.00;99.90;;;;;;5066522;28;20082;-80
2022/11/11 11:32:20;;;;;;;5.55;1.98;;;14.00;99.90;;;;;;5061170;28;20090;-81
2022/11/11 11:35:06;;;;;;;5.45;2.15;;;14.10;99.90;;;;;;5063702;28;20051;-80
2022/11/11 11:37:52;;;;;;;7.65;2.40;;;14.10;99.90;;;;;;5061343;28;20098;-80
2022/11/11 11:40:51;;;;;;;8.20;2.40;;;14.10;99.90;;;;;;5059248;28;20142;-78
2022/11/11 11:43:41;;;;;;;5.20;2.28;;;14.10;99.90;;;;;;5063891;28;20056;-82
2022/11/11 11:46:28;;;;;;;5.10;2.20;;;14.10;99.90;;;;;;5061666;28;20128;-82
2022/11/11 11:49:25;;;;;;;6.07;1.88;;;14.20;99.90;;;;;;5060731;28;20059;-81
2022/11/11 11:52:18;;;;;;;7.38;2.15;;;14.20;99.90;;;;;;5060860;28;20543;-82
2022/11/11 11:55:10;;;;;;;4.72;2.05;;;14.20;99.90;;;;;;5064388;28;20139;-82
2022/11/11 11:57:57;;;;;;;;;;;14.20;99.90;;;;;;5068633;28;20052;-82
2022/11/11 12:00:50;;;;;;;6.93;1.83;;;14.20;99.90;;;;;;5063511;28;19931;-81
2022/11/11 12:04:05;;;;;;;5.40;2.13;;;14.20;99.90;;;;;;5063832;28;20059;-82
2022/11/11 12:06:59;;;;;;;3.92;1.67;;;14.20;99.90;;;;;;5065209;28;20090;-82
2022/11/11 12:09:59;;;;;;;5.40;2.00;;;14.20;99.90;;;;;;5063784;28;20110;-81
2022/11/11 12:12:50;;;;;;;6.15;2.58;;;14.30;99.90;;;;;;5062076;28;20060;-81
2022/11/11 12:15:39;;;;;;;4.05;2.00;;;14.30;99.90;;;;;;5058829;28;20055;-81
2022/11/11 12:18:43;;;;;;;8.27;1.92;;;14.30;99.90;;;;;;5070160;28;20050;-81
2022/11/11 12:21:36;;;;;;;4.85;2.00;;;14.30;99.90;;;;;;5066546;28;20052;-82
2022/11/11 12:24:32;;;;;;;4.18;2.10;;;14.30;99.90;;;;;;5067259;28;20186;-82
2022/11/11 12:27:25;;;;;;;7.78;1.70;;;14.30;99.90;;;;;;5070005;28;20059;-82
2022/11/11 12:30:17;;;;;;;9.02;2.13;;;14.40;99.90;;;;;;5056814;28;20052;-83
2022/11/11 12:33:36;;;;;;;6.20;2.10;;;14.30;99.90;;;;;;5053179;28;20067;-82
2022/11/11 12:36:28;;;;;;;5.38;2.10;;;14.30;99.90;;;;;;5059044;28;20056;-82
2022/11/11 12:39:22;;;;;;;;;;;14.30;99.90;;;;;;5079794;28;20059;-82
2022/11/11 12:42:13;;;;;;;5.13;2.20;;;14.40;99.90;;;;;;5058400;28;20021;-82
2022/11/11 12:45:00;;;;;;;;;;;14.40;99.90;;;;;;5063900;28;20060;-82
2022/11/11 12:47:53;;;;;;;3.83;1.83;;;14.40;99.90;;;;;;5063115;28;19960;-82
2022/11/11 12:50:45;;;;;;;4.55;2.15;;;14.40;99.90;;;;;;5051880;28;20063;-82
2022/11/11 12:53:39;;;;;;;3.90;1.70;;;14.40;99.90;;;;;;5051401;28;20631;-82
2022/11/11 12:56:31;;;;;;;7.28;2.05;;;14.40;99.90;;;;;;5067511;28;20121;-82
2022/11/11 12:59:21;;;;;;;6.32;2.35;;;14.40;99.90;;;;;;5061500;28;20060;-82
2022/11/11 13:02:20;;;;;;;4.88;1.88;;;14.40;99.90;;;;;;5059789;28;20087;-81
2022/11/11 13:05:10;;;;;;;4.53;1.90;;;14.40;99.90;;;;;;5069664;28;20527;-81
2022/11/11 13:08:27;;;;;;;5.90;1.70;;;14.40;99.90;;;;;;5063443;28;20133;-80
2022/11/11 13:11:19;;;;;;;5.25;1.83;;;14.40;99.90;;;;;;5066513;28;20051;-83
2022/11/11 13:14:08;;;;;;;;;;;14.40;99.90;;;;;;5055390;28;20176;-83
2022/11/11 13:16:55;;;;;;;5.63;1.88;;;14.40;99.90;;;;;;5062618;28;19931;-83
2022/11/11 13:19:43;;;;;;;5.20;2.00;;;14.40;99.90;;;;;;5050921;28;20063;-83
2022/11/11 13:22:29;;;;;;;9.55;2.30;;;14.40;99.90;;;;;;5054415;28;20634;-84
2022/11/11 13:25:21;;;;;;;5.10;1.80;;;14.40;99.90;;;;;;5066091;28;20078;-83
2022/11/11 13:28:13;;;;;;;4.57;1.83;;;14.40;99.90;;;;;;5068141;28;20068;-83
2022/11/11 13:31:11;;;;;;;6.30;2.00;;;14.40;99.90;;;;;;5050888;28;20167;-83
2022/11/11 13:34:02;;;;;;;6.35;1.92;;;14.40;99.90;;;;;;5065790;28;20094;-83
2022/11/11 13:36:50;;;;;;;5.10;1.80;;;14.40;99.90;;;;;;5059342;28;20551;-83
2022/11/11 13:39:39;;;;;;;5.03;1.70;;;14.40;99.90;;;;;;5062976;28;20063;-84
2022/11/11 13:42:28;;;;;;;5.38;2.00;;;14.50;99.90;;;;;;5069516;28;20101;-83
2022/11/11 13:45:25;;;;;;;7.22;2.10;;;14.40;99.90;;;;;;5068953;28;20101;-83
2022/11/11 13:48:21;;;;;;;6.13;1.92;;;14.40;99.90;;;;;;5062484;28;20087;-84
2022/11/11 13:51:27;;;;;;;7.28;2.40;;;14.40;99.90;;;;;;5060704;28;20145;-83
2022/11/11 13:54:25;;;;;;;7.55;2.13;;;14.40;99.90;;;;;;5065832;28;20615;-83
2022/11/11 13:57:22;;;;;;;4.35;1.85;;;14.40;99.90;;;;;;5060202;28;20071;-83
2022/11/11 14:00:34;;;;;;;4.22;1.88;;;14.40;99.90;;;;;;5066211;28;20055;-83
2022/11/11 14:03:31;;;;;;;6.90;2.20;;;14.40;99.90;;;;;;5049919;28;20179;-83
2022/11/11 14:06:53;;;;;;;10.35;2.10;;;14.40;99.90;;;;;;5056619;28;20117;-83
2022/11/11 14:10:00;;;;;;;4.80;2.15;;;14.40;99.90;;;;;;5060264;28;20064;-83
2022/11/11 14:12:46;;;;;;;4.97;2.20;;;14.40;99.90;;;;;;5064450;28;20071;-83
2022/11/11 14:15:42;;;;;;;6.53;2.53;;;14.40;99.90;;;;;;5059666;28;20056;-82
2022/11/11 14:18:40;;;;;;;6.45;2.90;;;14.40;99.90;;;;;;5064699;28;20183;-83
2022/11/11 14:21:50;;;;;;;8.13;2.63;;;14.40;99.90;;;;;;5061521;28;20424;-83
2022/11/11 14:24:38;;;;;;;5.18;2.25;;;14.30;99.90;;;;;;5070787;28;20669;-83
2022/11/11 14:27:27;;;;;;;7.30;2.38;;;14.30;99.90;;;;;;5062611;28;20190;-83
2022/11/11 14:30:44;;;;;;;6.68;2.92;;;14.30;99.90;;;;;;5069058;28;20059;-83
2022/11/11 14:33:40;;;;;;;6.95;2.65;;;14.30;99.90;;;;;;5049352;28;20052;-83
2022/11/11 14:36:32;;;;;;;4.72;2.45;;;14.30;99.90;;;;;;5048123;28;20064;-83
2022/11/11 14:39:31;;;;;;;5.15;2.30;;;14.30;99.90;;;;;;5060703;28;20175;-83
2022/11/11 14:42:47;;;;;;;7.88;2.88;;;14.20;99.90;;;;;;5057082;28;20044;-82
2022/11/11 14:46:03;;;;;;;7.75;3.03;;;14.20;99.90;;;;;;5052360;28;20748;-84
2022/11/11 14:49:08;;;;;;;9.45;2.85;;;14.20;99.90;;;;;;5048134;28;20052;-79
2022/11/11 14:51:58;;;;;;;6.93;3.10;;;14.20;99.90;;;;;;5053676;28;20056;-84
2022/11/11 14:55:08;;;;;;;6.95;2.53;;;14.10;99.90;;;;;;5065245;28;20126;-83
2022/11/11 14:57:58;;;;;;;7.82;2.72;;;14.20;99.90;;;;;;5063760;28;20043;-82
2022/11/11 15:00:47;;;;;;;5.53;2.33;;;14.10;99.90;;;;;;5062805;28;20558;-83
2022/11/11 15:03:37;;;;;;;6.47;2.60;;;14.10;99.90;;;;;;5069105;28;20059;-83
2022/11/11 15:06:26;;;;;;;8.47;3.00;;;14.10;99.90;;;;;;5060092;28;20186;-82
2022/11/11 15:09:26;;;;;;;6.38;2.60;;;14.00;99.90;;;;;;5056333;28;20063;-83
2022/11/11 15:12:20;;;;;;;6.57;2.78;;;14.10;99.90;;;;;;5059262;28;20105;-83
2022/11/11 15:15:11;;;;;;;8.05;3.10;;;14.00;99.90;;;;;;5059268;28;20059;-82
2022/11/11 15:18:04;;;;;;;6.57;3.00;;;14.00;99.90;;;;;;5056709;28;20175;-83
2022/11/11 15:21:01;;;;;;;10.07;3.28;;;14.00;99.90;;;;;;5062453;28;20085;-82
2022/11/11 15:23:51;;;;;;;10.20;3.33;;;14.00;99.90;;;;;;5058550;28;20063;-82
2022/11/11 15:26:40;;;;;;;7.15;3.55;;;13.90;99.90;;;;;;5053500;28;20068;-82
2022/11/11 15:29:54;;;;;;;9.18;3.88;;;13.80;99.90;;;;;;5058868;28;20523;-82
2022/11/11 15:32:59;;;;;;;13.25;5.93;;;13.80;99.90;;;;;;5060102;28;20530;-82
2022/11/11 15:35:51;;;;;;;14.43;6.22;;;13.80;99.90;;;;;;5063307;28;20056;-82
2022/11/11 15:38:37;;;;;;;17.55;8.75;;;13.70;99.90;;;;;;5057247;28;20129;-82
2022/11/11 15:41:25;;;;;;;19.27;9.20;;;13.70;99.90;;;;;;5066729;28;20059;-83
2022/11/11 15:44:18;;;;;;;17.27;9.25;;;13.70;99.90;;;;;;5053226;28;20467;-82
2022/11/11 15:47:04;;;;;;;20.80;10.50;;;13.60;99.90;;;;;;5058360;28;20536;-82
2022/11/11 15:49:50;;;;;;;21.55;9.77;;;13.50;99.90;;;;;;5063952;28;20424;-82
2022/11/11 15:52:36;;;;;;;19.17;9.18;;;13.50;99.90;;;;;;5060500;28;20427;-82